createdAt,value
2023-04-15T00:01:20.804Z,12.73
2023-04-15T00:06:23.783Z,13.35
2023-04-15T00:11:26.377Z,14.02
2023-04-15T00:16:29.056Z,12.92
2023-04-15T00:21:32.465Z,13.07
2023-04-15T00:26:35.676Z,14.05
2023-04-15T00:31:38.270Z,13.33
2023-04-15T00:36:41.264Z,13.03
2023-04-15T00:41:45.620Z,13.94
2023-04-15T00:46:50.706Z,12.86
2023-04-15T00:51:53.232Z,12.95
2023-04-15T00:56:56.515Z,14.00
2023-04-15T01:01:59.367Z,13.87
2023-04-15T01:07:02.605Z,12.95
2023-04-15T01:12:07.111Z,13.70
2023-04-15T01:17:09.760Z,13.82
2023-04-15T01:22:12.411Z,13.48
2023-04-15T01:27:15.762Z,12.78
2023-04-15T01:32:18.656Z,13.77
2023-04-15T01:37:21.536Z,13.35
2023-04-15T01:42:24.471Z,12.76
2023-04-15T01:47:27.049Z,13.64
2023-04-15T01:52:29.685Z,13.76
2023-04-15T01:57:32.290Z,12.74
2023-04-15T02:02:35.065Z,13.73
2023-04-15T02:07:37.968Z,13.78
2023-04-15T02:12:40.659Z,12.79
2023-04-15T02:17:46.131Z,13.56
2023-04-15T02:22:49.722Z,14.11
2023-04-15T02:27:53.148Z,13.36
2023-04-15T02:32:56.088Z,13.16
2023-04-15T02:37:58.755Z,13.98
2023-04-15T02:43:01.345Z,13.32
2023-04-15T02:48:06.469Z,13.12
2023-04-15T02:53:09.431Z,14.00
2023-04-15T02:58:12.394Z,13.11
2023-04-15T03:03:15.357Z,13.20
2023-04-15T03:08:18.105Z,13.94
2023-04-15T03:13:21.433Z,13.43
2023-04-15T03:18:24.022Z,12.90
2023-04-15T03:23:26.684Z,13.69
2023-04-15T03:28:30.054Z,13.69
2023-04-15T03:33:32.613Z,12.81
2023-04-15T03:38:35.332Z,13.50
2023-04-15T03:43:37.913Z,14.04
2023-04-15T03:48:40.758Z,13.47
2023-04-15T03:53:43.588Z,12.88
2023-04-15T03:58:46.674Z,13.58
2023-04-15T04:03:49.316Z,13.88
2023-04-15T04:08:52.035Z,12.84
2023-04-15T04:13:54.581Z,12.59
2023-04-15T04:18:57.100Z,13.27
2023-04-15T04:24:00.174Z,13.86
2023-04-15T04:29:02.992Z,13.80
2023-04-15T04:34:06.047Z,12.76
2023-04-15T04:39:08.984Z,13.16
2023-04-15T04:44:11.624Z,13.46
2023-04-15T04:49:14.100Z,13.39
2023-04-15T04:54:17.556Z,13.31
2023-04-15T04:59:20.305Z,13.42
2023-04-15T05:04:22.813Z,13.74
2023-04-15T05:09:25.573Z,13.80
2023-04-15T05:14:28.149Z,13.76
2023-04-15T05:19:30.830Z,13.84
2023-04-15T05:24:33.367Z,13.93
2023-04-15T05:29:36.028Z,13.84
2023-04-15T05:34:38.539Z,12.88
2023-04-15T05:39:41.101Z,13.43
2023-04-15T05:44:43.885Z,13.97
2023-04-15T05:49:46.422Z,13.81
2023-04-15T05:54:48.926Z,12.84
2023-04-15T05:59:54.261Z,13.86
2023-04-15T06:04:57.736Z,14.08
2023-04-15T06:10:00.598Z,12.94
2023-04-15T06:15:03.952Z,13.81
2023-04-15T06:20:08.388Z,14.17
2023-04-15T06:25:11.056Z,13.24
2023-04-15T06:30:13.723Z,14.19
2023-04-15T06:35:16.317Z,13.83
2023-04-15T06:40:18.821Z,13.21
2023-04-15T06:45:21.575Z,13.97
2023-04-15T06:50:24.327Z,13.00
2023-04-15T06:55:27.487Z,13.47
2023-04-15T07:00:30.474Z,13.73
2023-04-15T07:05:33.456Z,13.04
2023-04-15T07:10:36.355Z,13.97
2023-04-15T07:15:38.966Z,13.35
2023-04-15T07:20:41.521Z,13.30
2023-04-15T07:25:44.068Z,13.87
2023-04-15T07:30:46.618Z,12.87
2023-04-15T07:35:49.947Z,13.40
2023-04-15T07:40:52.751Z,13.87
2023-04-15T07:45:55.453Z,12.82
2023-04-15T07:50:57.988Z,12.88
2023-04-15T07:56:00.609Z,13.97
2023-04-15T08:01:05.270Z,13.20
2023-04-15T08:06:07.889Z,13.08
2023-04-15T08:11:10.855Z,13.90
2023-04-15T08:16:18.556Z,13.17
2023-04-15T08:21:21.387Z,13.35
2023-04-15T08:26:23.897Z,14.15
2023-04-15T08:31:30.779Z,13.23
2023-04-15T08:36:33.621Z,13.44
2023-04-15T08:41:47.811Z,14.33
2023-04-15T08:46:52.405Z,13.60
2023-04-15T08:51:58.736Z,13.69
2023-04-15T08:57:02.451Z,14.32
2023-04-15T09:02:05.886Z,13.31
2023-04-15T09:07:08.480Z,13.71
2023-04-15T09:12:12.161Z,14.37
2023-04-15T09:17:19.468Z,13.44
2023-04-15T09:22:22.612Z,13.94
2023-04-15T09:27:25.124Z,14.32
2023-04-15T09:32:27.694Z,13.45
2023-04-15T09:37:36.806Z,13.96
2023-04-15T09:42:56.354Z,14.32
2023-04-15T09:48:00.692Z,13.41
2023-04-15T09:53:03.809Z,14.05
2023-04-15T09:58:17.421Z,14.04
2023-04-15T10:03:25.944Z,13.28
2023-04-15T10:08:30.810Z,14.10
2023-04-15T10:13:35.972Z,14.21
2023-04-15T10:18:43.111Z,13.23
2023-04-15T10:23:46.065Z,13.64
2023-04-15T10:28:48.926Z,14.13
2023-04-15T10:33:53.379Z,14.22
2023-04-15T10:38:55.919Z,13.36
2023-04-15T10:44:03.726Z,14.11
2023-04-15T10:49:08.138Z,14.64
2023-04-15T10:54:15.277Z,13.77
2023-04-15T10:59:17.879Z,13.49
2023-04-15T11:04:52.858Z,14.17
2023-04-15T11:09:56.492Z,14.27
2023-04-15T11:14:59.106Z,13.30
2023-04-15T11:20:01.888Z,13.76
2023-04-15T11:25:05.403Z,14.45
2023-04-15T11:30:28.552Z,13.56
2023-04-15T11:35:32.218Z,13.64
2023-04-15T11:40:35.371Z,14.10
2023-04-15T11:45:48.160Z,14.52
2023-04-15T11:51:08.041Z,14.86
2023-04-15T11:56:16.518Z,14.47
2023-04-15T12:01:19.638Z,13.32
2023-04-15T12:06:27.671Z,12.83
2023-04-15T12:11:32.898Z,12.67
2023-04-15T12:16:49.149Z,12.75
2023-04-15T12:21:59.954Z,14.25
2023-04-15T12:27:07.869Z,14.88
2023-04-15T12:32:15.390Z,13.47
2023-04-15T12:37:18.521Z,14.46
2023-04-15T12:42:22.459Z,14.86
2023-04-15T12:47:25.352Z,13.78
2023-04-15T12:52:27.900Z,14.52
2023-04-15T12:57:30.407Z,15.15
2023-04-15T13:02:33.074Z,14.42
2023-04-15T13:07:35.800Z,14.22
2023-04-15T13:12:38.386Z,14.88
2023-04-15T13:17:41.065Z,13.89
2023-04-15T13:22:43.620Z,15.10
2023-04-15T13:27:46.575Z,14.42
2023-04-15T13:32:50.691Z,14.76
2023-04-15T13:37:54.162Z,15.07
2023-04-15T13:42:57.788Z,14.33
2023-04-15T13:48:01.174Z,15.17
2023-04-15T13:53:03.884Z,15.57
2023-04-15T13:58:06.424Z,15.57
2023-04-15T14:03:09.566Z,15.02
2023-04-15T14:08:12.531Z,14.16
2023-04-15T14:13:15.195Z,14.67
2023-04-15T14:18:17.840Z,14.75
2023-04-15T14:23:20.333Z,14.92
2023-04-15T14:28:22.901Z,15.02
2023-04-15T14:33:25.592Z,15.08
2023-04-15T14:38:28.377Z,15.16
2023-04-15T14:43:30.870Z,15.31
2023-04-15T14:48:33.453Z,14.45
2023-04-15T14:53:35.966Z,14.05
2023-04-15T14:58:38.517Z,14.52
2023-04-15T15:03:41.550Z,14.81
2023-04-15T15:08:44.238Z,15.01
2023-04-15T15:13:47.207Z,14.83
2023-04-15T15:18:51.373Z,14.74
2023-04-15T15:23:54.213Z,14.61
2023-04-15T15:28:56.959Z,14.46
2023-04-15T15:33:59.548Z,14.27
2023-04-15T15:39:02.143Z,14.06
2023-04-15T15:44:04.977Z,13.96
2023-04-15T15:49:07.636Z,14.03
2023-04-15T15:54:10.393Z,14.18
2023-04-15T15:59:12.996Z,14.15
2023-04-15T16:04:16.034Z,14.18
2023-04-15T16:09:18.783Z,14.22
2023-04-15T16:14:21.559Z,14.14
2023-04-15T16:19:24.114Z,14.18
2023-04-15T16:24:27.744Z,14.15
2023-04-15T16:29:30.426Z,13.86
2023-04-15T16:34:32.977Z,13.74
2023-04-15T16:39:35.681Z,13.58
2023-04-15T16:44:38.423Z,13.50
2023-04-15T16:49:41.132Z,13.52
2023-04-15T16:54:43.658Z,13.51
2023-04-15T16:59:46.170Z,13.28
2023-04-15T17:04:48.697Z,13.24
2023-04-15T17:09:53.280Z,13.25
2023-04-15T17:14:57.016Z,13.24
2023-04-15T17:19:59.593Z,13.18
2023-04-15T17:25:03.137Z,13.39
2023-04-15T17:30:07.464Z,13.33
2023-04-15T17:35:10.385Z,13.27
2023-04-15T17:40:14.889Z,13.15
2023-04-15T17:45:17.670Z,13.13
2023-04-15T17:50:20.651Z,13.15
2023-04-15T17:55:24.211Z,12.93
2023-04-15T18:00:27.034Z,12.84
2023-04-15T18:05:29.961Z,12.56
2023-04-15T18:10:36.238Z,12.33
2023-04-15T18:15:38.856Z,12.15
2023-04-15T18:20:41.639Z,12.16
2023-04-15T18:25:45.256Z,12.26
2023-04-15T18:30:48.404Z,12.35
2023-04-15T18:35:51.268Z,12.18
2023-04-15T18:40:54.001Z,12.07
2023-04-15T18:45:57.096Z,12.07
2023-04-15T18:51:00.149Z,11.99
2023-04-15T18:56:03.214Z,11.98
2023-04-15T19:01:06.783Z,12.02
2023-04-15T19:06:09.390Z,12.05
2023-04-15T19:11:12.308Z,11.99
2023-04-15T19:16:14.998Z,12.05
2023-04-15T19:21:17.869Z,12.29
2023-04-15T19:26:20.691Z,12.34
2023-04-15T19:31:23.587Z,12.28
2023-04-15T19:36:28.102Z,12.24
2023-04-15T19:41:30.836Z,12.14
2023-04-15T19:46:33.492Z,12.07
2023-04-15T19:51:36.380Z,12.12
2023-04-15T19:56:39.000Z,12.20
2023-04-15T20:01:41.583Z,12.26
2023-04-15T20:06:44.243Z,12.32
2023-04-15T20:12:45.637Z,12.30
2023-04-15T20:17:09.286Z,12.26
2023-04-15T20:22:12.009Z,12.30
2023-04-15T20:27:14.599Z,12.42
2023-04-15T20:32:18.689Z,12.45
2023-04-15T20:37:21.329Z,12.70
2023-04-15T20:42:23.846Z,12.92
2023-04-15T20:47:26.495Z,12.90
2023-04-15T20:52:29.812Z,12.89
2023-04-15T20:57:32.393Z,12.89
2023-04-15T21:02:35.111Z,12.91
2023-04-15T21:07:38.037Z,12.92
2023-04-15T21:12:41.162Z,12.89
2023-04-15T21:17:43.791Z,12.82
2023-04-15T21:22:46.680Z,12.75
2023-04-15T21:27:49.236Z,12.70
2023-04-15T21:32:52.799Z,12.80
2023-04-15T21:37:55.574Z,12.62
2023-04-15T21:42:58.250Z,12.56
2023-04-15T21:48:07.736Z,12.40
2023-04-15T21:53:11.181Z,12.38
2023-04-15T21:58:13.735Z,12.39
2023-04-15T22:03:16.563Z,12.27
2023-04-15T22:08:19.341Z,12.29
2023-04-15T22:13:21.936Z,12.49
2023-04-15T22:18:24.494Z,12.57
2023-04-15T22:23:27.130Z,12.59
2023-04-15T22:28:29.736Z,12.60
2023-04-15T22:33:32.327Z,12.72
2023-04-15T22:38:34.937Z,12.76
2023-04-15T22:43:37.480Z,12.81
2023-04-15T22:48:40.092Z,12.75
2023-04-15T22:53:42.608Z,12.80
2023-04-15T22:58:45.159Z,12.89
2023-04-15T23:03:55.839Z,12.75
2023-04-15T23:09:02.074Z,12.82
2023-04-15T23:14:04.612Z,12.92
2023-04-15T23:19:07.412Z,12.86
2023-04-15T23:24:11.827Z,12.76
2023-04-15T23:29:14.347Z,12.53
2023-04-15T23:34:16.835Z,12.34
2023-04-15T23:39:20.480Z,12.16
2023-04-15T23:44:24.225Z,12.27
2023-04-15T23:49:26.773Z,12.52
2023-04-15T23:54:29.341Z,12.45
2023-04-15T23:59:31.839Z,12.68
